Milton, FL

11:36 AM CST on December 26, 2014 (GMT -0600)
Milton, FL | Change Station
CLOSE
Current Station
Personal Weather Station
Location: Milton, FL
Elevation: 170 ft
Nearby Weather Stations

Elev 170 ft 30.65 °N, 87.06 °W | Updated 11 seconds ago

Mostly Cloudy
Mostly Cloudy
61.0 °F
Feels Like 61.0 °F
N
2.0
Wind Variable Wind from WNW
Gusts 3.0 mph

Today
High -- | Low -- °F
--% Chance of Precip.
Yesterday
High -- | Low -- °F
Precip. -- in
6:43 AM 4:53 PM
Waxing Crescent, 27% visible
Pressure 30.28 in
Visibility 10.0 miles
Clouds Scattered Clouds 2600 ft
Mostly Cloudy 15000 ft
Mostly Cloudy 25000 ft
Dew Point 51 °F
Humidity 69%
Rainfall 0.00 in
Snow Depth Not available.
UV 2 out of 12
Pollen 3.50 out of 12
Air Quality Not available.
Flu Activity Not available.
SPECI KNDZ 261729Z 08006KT 10SM SCT026 BKN150 BKN250 17/08 A3028 RMK AO2 T01670078 $

More Conditions Fewer Conditions

Pressure 30.28 in
Visibility 10.0 miles
Clouds Scattered Clouds 2600 ft
Mostly Cloudy 15000 ft
Mostly Cloudy 25000 ft
Dew Point 51 °F
Humidity 69%
Rainfall 0.00 in
Snow Depth Not available.
UV 2 out of 12
Pollen 3.50 out of 12
Air Quality Not available.
Flu Activity Not available.
SPECI KNDZ 261729Z 08006KT 10SM SCT026 BKN150 BKN250 17/08 A3028 RMK AO2 T01670078 $

More Conditions Fewer Conditions

10-Day Weather Forecast

Almanac

Astronomy

Dec. 26, 2014 Rise Set
Actual Time
Civil Twilight
Nautical Twilight
Astronomical Twilight
Moon
Length of Visible Light
Length of Day
Tomorrow will be .
, % of the Moon is Illuminated

Today's Extremes

State Highs State Lows

Community

WunderPhotos

Upload Photos

1,780,646 photos uploaded!

WunderBlogs® & News

Nearby

Air Quality

  Air Quality AQ Index Pollutant
Not available.

Snow Depth

Station Depth Elevation

Earthquake Activity

City Distance Mag. Time & Date
Minimum magnitude displayed is 2.5.

Coastal Water Temperatures

Place Temperature

Nearby Weather Stations